sensor_id;sensor_type;location;lat;lon;timestamp;temperature;humidity
6756;DHT22;3415;51.148;7.014;2023-01-25T00:00:05;1.20;1.00
6756;DHT22;3415;51.148;7.014;2023-01-25T00:02:33;1.30;1.00
6756;DHT22;3415;51.148;7.014;2023-01-25T00:05:00;1.00;1.00
6756;DHT22;3415;51.148;7.014;2023-01-25T00:07:26;1.00;1.00
6756;DHT22;3415;51.148;7.014;2023-01-25T00:09:53;1.10;1.00
6756;DHT22;3415;51.148;7.014;2023-01-25T00:17:14;1.10;1.00
6756;DHT22;3415;51.148;7.014;2023-01-25T00:19:42;1.10;1.00
6756;DHT22;3415;51.148;7.014;2023-01-25T00:22:09;1.10;1.00
6756;DHT22;3415;51.148;7.014;2023-01-25T00:24:36;1.10;1.00
6756;DHT22;3415;51.148;7.014;2023-01-25T00:27:03;1.20;1.00
6756;DHT22;3415;51.148;7.014;2023-01-25T00:33:33;1.20;1.00
6756;DHT22;3415;51.148;7.014;2023-01-25T00:36:26;1.20;1.00
6756;DHT22;3415;51.148;7.014;2023-01-25T00:38:54;1.30;1.00
6756;DHT22;3415;51.148;7.014;2023-01-25T00:41:22;1.30;1.00
6756;DHT22;3415;51.148;7.014;2023-01-25T00:43:49;1.30;1.00
6756;DHT22;3415;51.148;7.014;2023-01-25T00:46:17;1.30;1.00
6756;DHT22;3415;51.148;7.014;2023-01-25T00:48:44;1.30;1.00
6756;DHT22;3415;51.148;7.014;2023-01-25T00:51:12;1.30;1.00
6756;DHT22;3415;51.148;7.014;2023-01-25T00:53:40;1.30;1.00
6756;DHT22;3415;51.148;7.014;2023-01-25T00:56:07;1.20;1.00
6756;DHT22;3415;51.148;7.014;2023-01-25T00:58:34;1.20;1.00
6756;DHT22;3415;51.148;7.014;2023-01-25T01:01:00;1.10;1.00
6756;DHT22;3415;51.148;7.014;2023-01-25T01:03:27;1.10;1.00
6756;DHT22;3415;51.148;7.014;2023-01-25T01:06:01;1.10;1.00
6756;DHT22;3415;51.148;7.014;2023-01-25T01:08:31;1.00;1.00
6756;DHT22;3415;51.148;7.014;2023-01-25T01:10:59;1.00;1.00
6756;DHT22;3415;51.148;7.014;2023-01-25T01:20:09;0.90;1.00
6756;DHT22;3415;51.148;7.014;2023-01-25T01:22:36;1.00;1.00
6756;DHT22;3415;51.148;7.014;2023-01-25T01:25:05;1.00;1.00
6756;DHT22;3415;51.148;7.014;2023-01-25T01:27:33;1.10;1.00
6756;DHT22;3415;51.148;7.014;2023-01-25T01:30:00;1.00;1.00
6756;DHT22;3415;51.148;7.014;2023-01-25T01:32:26;1.00;1.00
6756;DHT22;3415;51.148;7.014;2023-01-25T01:37:20;1.00;1.00
6756;DHT22;3415;51.148;7.014;2023-01-25T01:39:47;1.00;1.00
6756;DHT22;3415;51.148;7.014;2023-01-25T01:42:15;1.00;1.00
6756;DHT22;3415;51.148;7.014;2023-01-25T01:44:44;1.00;1.00
6756;DHT22;3415;51.148;7.014;2023-01-25T01:47:15;1.00;1.00
6756;DHT22;3415;51.148;7.014;2023-01-25T01:49:49;1.00;1.00
6756;DHT22;3415;51.148;7.014;2023-01-25T01:52:18;1.00;1.00
6756;DHT22;3415;51.148;7.014;2023-01-25T01:54:50;1.00;1.00
6756;DHT22;3415;51.148;7.014;2023-01-25T01:57:21;1.00;1.00
6756;DHT22;3415;51.148;7.014;2023-01-25T01:59:57;1.10;1.00
6756;DHT22;3415;51.148;7.014;2023-01-25T02:02:26;1.00;1.00
6756;DHT22;3415;51.148;7.014;2023-01-25T02:04:56;1.10;1.00
6756;DHT22;3415;51.148;7.014;2023-01-25T02:07:29;1.10;1.00
6756;DHT22;3415;51.148;7.014;2023-01-25T02:09:58;1.10;1.00
6756;DHT22;3415;51.148;7.014;2023-01-25T02:12:27;1.10;1.00
6756;DHT22;3415;51.148;7.014;2023-01-25T02:14:54;1.00;1.00
6756;DHT22;3415;51.148;7.014;2023-01-25T02:17:25;1.00;1.00
6756;DHT22;3415;51.148;7.014;2023-01-25T02:19:55;0.90;1.00
6756;DHT22;3415;51.148;7.014;2023-01-25T02:22:29;1.00;1.00
6756;DHT22;3415;51.148;7.014;2023-01-25T02:25:05;0.90;1.00
6756;DHT22;3415;51.148;7.014;2023-01-25T02:27:32;0.90;1.00
6756;DHT22;3415;51.148;7.014;2023-01-25T02:30:03;0.90;1.00
6756;DHT22;3415;51.148;7.014;2023-01-25T02:32:31;1.00;1.00
6756;DHT22;3415;51.148;7.014;2023-01-25T02:34:57;1.00;1.00
6756;DHT22;3415;51.148;7.014;2023-01-25T02:37:24;1.00;1.00
6756;DHT22;3415;51.148;7.014;2023-01-25T02:39:51;1.00;1.00
6756;DHT22;3415;51.148;7.014;2023-01-25T02:42:20;0.90;1.00
6756;DHT22;3415;51.148;7.014;2023-01-25T02:44:48;0.90;1.00
6756;DHT22;3415;51.148;7.014;2023-01-25T02:47:16;0.90;1.00
6756;DHT22;3415;51.148;7.014;2023-01-25T02:49:42;0.90;1.00
6756;DHT22;3415;51.148;7.014;2023-01-25T02:52:09;0.90;1.00
6756;DHT22;3415;51.148;7.014;2023-01-25T02:54:36;0.80;1.00
6756;DHT22;3415;51.148;7.014;2023-01-25T02:57:03;0.90;1.00
6756;DHT22;3415;51.148;7.014;2023-01-25T02:59:31;0.90;1.00
6756;DHT22;3415;51.148;7.014;2023-01-25T03:01:58;0.90;1.00
6756;DHT22;3415;51.148;7.014;2023-01-25T03:04:25;0.90;1.00
6756;DHT22;3415;51.148;7.014;2023-01-25T03:06:51;0.80;1.00
6756;DHT22;3415;51.148;7.014;2023-01-25T03:09:18;0.80;1.00
6756;DHT22;3415;51.148;7.014;2023-01-25T03:11:45;0.80;1.00
6756;DHT22;3415;51.148;7.014;2023-01-25T03:14:12;0.80;1.00
6756;DHT22;3415;51.148;7.014;2023-01-25T03:16:40;0.80;1.00
6756;DHT22;3415;51.148;7.014;2023-01-25T03:19:07;0.90;1.00
6756;DHT22;3415;51.148;7.014;2023-01-25T03:21:34;0.90;1.00
6756;DHT22;3415;51.148;7.014;2023-01-25T03:24:01;0.90;1.00
6756;DHT22;3415;51.148;7.014;2023-01-25T03:26:28;0.90;1.00
6756;DHT22;3415;51.148;7.014;2023-01-25T03:28:55;0.90;1.00
6756;DHT22;3415;51.148;7.014;2023-01-25T03:31:22;0.90;1.00
6756;DHT22;3415;51.148;7.014;2023-01-25T03:33:50;0.90;1.00
6756;DHT22;3415;51.148;7.014;2023-01-25T03:36:17;0.80;1.00
6756;DHT22;3415;51.148;7.014;2023-01-25T03:38:44;0.80;1.00
6756;DHT22;3415;51.148;7.014;2023-01-25T03:41:11;0.80;1.00
6756;DHT22;3415;51.148;7.014;2023-01-25T03:43:39;0.80;1.00
6756;DHT22;3415;51.148;7.014;2023-01-25T03:46:06;1.00;1.00
6756;DHT22;3415;51.148;7.014;2023-01-25T03:51:01;1.00;1.00
6756;DHT22;3415;51.148;7.014;2023-01-25T03:53:29;0.80;1.00
6756;DHT22;3415;51.148;7.014;2023-01-25T03:55:59;0.80;1.00
6756;DHT22;3415;51.148;7.014;2023-01-25T03:58:27;0.70;1.00
6756;DHT22;3415;51.148;7.014;2023-01-25T04:00:56;0.70;1.00
6756;DHT22;3415;51.148;7.014;2023-01-25T04:03:23;0.70;1.00
6756;DHT22;3415;51.148;7.014;2023-01-25T04:05:50;0.80;1.00
6756;DHT22;3415;51.148;7.014;2023-01-25T04:08:19;0.80;1.00
6756;DHT22;3415;51.148;7.014;2023-01-25T04:10:49;0.80;1.00
6756;DHT22;3415;51.148;7.014;2023-01-25T04:13:18;0.80;1.00
6756;DHT22;3415;51.148;7.014;2023-01-25T04:15:45;0.80;1.00
6756;DHT22;3415;51.148;7.014;2023-01-25T04:18:12;0.90;1.00
6756;DHT22;3415;51.148;7.014;2023-01-25T04:20:39;0.90;1.00
6756;DHT22;3415;51.148;7.014;2023-01-25T04:23:06;0.90;1.00
6756;DHT22;3415;51.148;7.014;2023-01-25T04:25:36;0.90;1.00
6756;DHT22;3415;51.148;7.014;2023-01-25T04:28:03;0.90;1.00
6756;DHT22;3415;51.148;7.014;2023-01-25T04:30:30;0.90;1.00
6756;DHT22;3415;51.148;7.014;2023-01-25T04:33:02;0.80;1.00
6756;DHT22;3415;51.148;7.014;2023-01-25T04:35:29;0.70;1.00
6756;DHT22;3415;51.148;7.014;2023-01-25T04:37:56;0.60;1.00
6756;DHT22;3415;51.148;7.014;2023-01-25T04:40:23;0.60;1.00
6756;DHT22;3415;51.148;7.014;2023-01-25T04:42:52;0.50;1.00
6756;DHT22;3415;51.148;7.014;2023-01-25T04:45:18;0.60;1.00
6756;DHT22;3415;51.148;7.014;2023-01-25T04:47:45;0.60;1.00
6756;DHT22;3415;51.148;7.014;2023-01-25T04:50:12;0.70;1.00
6756;DHT22;3415;51.148;7.014;2023-01-25T04:52:39;0.70;1.00
6756;DHT22;3415;51.148;7.014;2023-01-25T04:57:33;0.80;1.00
6756;DHT22;3415;51.148;7.014;2023-01-25T05:00:01;0.80;1.00
6756;DHT22;3415;51.148;7.014;2023-01-25T05:04:55;0.80;1.00
6756;DHT22;3415;51.148;7.014;2023-01-25T05:07:22;0.90;1.00
6756;DHT22;3415;51.148;7.014;2023-01-25T05:09:49;0.90;1.00
6756;DHT22;3415;51.148;7.014;2023-01-25T05:12:16;0.90;1.00
6756;DHT22;3415;51.148;7.014;2023-01-25T05:14:43;0.90;1.00
6756;DHT22;3415;51.148;7.014;2023-01-25T05:17:11;0.90;1.00
6756;DHT22;3415;51.148;7.014;2023-01-25T05:19:38;0.90;1.00
6756;DHT22;3415;51.148;7.014;2023-01-25T05:22:04;0.90;1.00
6756;DHT22;3415;51.148;7.014;2023-01-25T05:24:36;0.80;1.00
6756;DHT22;3415;51.148;7.014;2023-01-25T05:27:06;0.80;1.00
6756;DHT22;3415;51.148;7.014;2023-01-25T05:29:34;0.80;1.00
6756;DHT22;3415;51.148;7.014;2023-01-25T05:32:03;0.80;1.00
6756;DHT22;3415;51.148;7.014;2023-01-25T05:34:32;0.80;1.00
6756;DHT22;3415;51.148;7.014;2023-01-25T05:36:59;0.80;1.00
6756;DHT22;3415;51.148;7.014;2023-01-25T05:39:27;0.70;1.00
6756;DHT22;3415;51.148;7.014;2023-01-25T05:41:53;0.70;1.00
6756;DHT22;3415;51.148;7.014;2023-01-25T05:46:48;0.60;1.00
6756;DHT22;3415;51.148;7.014;2023-01-25T05:49:15;0.60;1.00
6756;DHT22;3415;51.148;7.014;2023-01-25T05:51:44;0.60;1.00
6756;DHT22;3415;51.148;7.014;2023-01-25T05:54:12;0.70;1.00
6756;DHT22;3415;51.148;7.014;2023-01-25T05:56:39;0.80;1.00
6756;DHT22;3415;51.148;7.014;2023-01-25T05:59:06;0.80;1.00
6756;DHT22;3415;51.148;7.014;2023-01-25T06:01:33;0.70;1.00
6756;DHT22;3415;51.148;7.014;2023-01-25T06:04:00;0.80;1.00
6756;DHT22;3415;51.148;7.014;2023-01-25T06:06:27;0.80;1.00
6756;DHT22;3415;51.148;7.014;2023-01-25T06:08:55;0.90;1.00
6756;DHT22;3415;51.148;7.014;2023-01-25T06:11:23;0.90;1.00
6756;DHT22;3415;51.148;7.014;2023-01-25T06:13:50;0.90;1.00
6756;DHT22;3415;51.148;7.014;2023-01-25T06:16:17;0.90;1.00
6756;DHT22;3415;51.148;7.014;2023-01-25T06:18:44;0.80;1.00
6756;DHT22;3415;51.148;7.014;2023-01-25T06:21:11;0.70;1.00
6756;DHT22;3415;51.148;7.014;2023-01-25T06:23:38;0.70;1.00
6756;DHT22;3415;51.148;7.014;2023-01-25T06:26:09;0.70;1.00
6756;DHT22;3415;51.148;7.014;2023-01-25T06:28:36;0.80;1.00
6756;DHT22;3415;51.148;7.014;2023-01-25T06:31:05;0.80;1.00
6756;DHT22;3415;51.148;7.014;2023-01-25T06:33:32;0.60;1.00
6756;DHT22;3415;51.148;7.014;2023-01-25T06:36:00;0.70;1.00
6756;DHT22;3415;51.148;7.014;2023-01-25T06:38:27;0.70;1.00
6756;DHT22;3415;51.148;7.014;2023-01-25T06:40:57;0.80;1.00
6756;DHT22;3415;51.148;7.014;2023-01-25T06:43:25;0.80;1.00
6756;DHT22;3415;51.148;7.014;2023-01-25T06:45:56;0.90;1.00
6756;DHT22;3415;51.148;7.014;2023-01-25T06:48:23;0.80;1.00
6756;DHT22;3415;51.148;7.014;2023-01-25T06:50:53;0.80;1.00
6756;DHT22;3415;51.148;7.014;2023-01-25T06:53:20;0.80;1.00
6756;DHT22;3415;51.148;7.014;2023-01-25T06:55:46;0.70;1.00
6756;DHT22;3415;51.148;7.014;2023-01-25T06:58:13;0.70;1.00
6756;DHT22;3415;51.148;7.014;2023-01-25T07:00:41;0.70;1.00
6756;DHT22;3415;51.148;7.014;2023-01-25T07:03:08;0.60;1.00
6756;DHT22;3415;51.148;7.014;2023-01-25T07:05:35;0.60;1.00
6756;DHT22;3415;51.148;7.014;2023-01-25T07:08:02;0.60;1.00
6756;DHT22;3415;51.148;7.014;2023-01-25T07:10:30;0.50;1.00
6756;DHT22;3415;51.148;7.014;2023-01-25T07:12:57;0.70;1.00
6756;DHT22;3415;51.148;7.014;2023-01-25T07:15:23;0.70;1.00
6756;DHT22;3415;51.148;7.014;2023-01-25T07:17:52;0.80;1.00
6756;DHT22;3415;51.148;7.014;2023-01-25T07:20:19;0.80;1.00
6756;DHT22;3415;51.148;7.014;2023-01-25T07:22:46;0.70;1.00
6756;DHT22;3415;51.148;7.014;2023-01-25T07:25:13;0.70;1.00
6756;DHT22;3415;51.148;7.014;2023-01-25T07:27:40;0.80;1.00
6756;DHT22;3415;51.148;7.014;2023-01-25T07:30:09;0.70;1.00
6756;DHT22;3415;51.148;7.014;2023-01-25T07:32:38;0.60;1.00
6756;DHT22;3415;51.148;7.014;2023-01-25T07:35:08;0.60;1.00
6756;DHT22;3415;51.148;7.014;2023-01-25T07:37:36;0.60;1.00
6756;DHT22;3415;51.148;7.014;2023-01-25T07:40:04;0.60;1.00
6756;DHT22;3415;51.148;7.014;2023-01-25T07:42:31;0.50;1.00
6756;DHT22;3415;51.148;7.014;2023-01-25T07:44:58;0.60;1.00
6756;DHT22;3415;51.148;7.014;2023-01-25T07:47:26;0.60;1.00
6756;DHT22;3415;51.148;7.014;2023-01-25T07:49:53;0.60;1.00
6756;DHT22;3415;51.148;7.014;2023-01-25T07:52:22;0.60;1.00
6756;DHT22;3415;51.148;7.014;2023-01-25T07:54:48;0.60;12.60
6756;DHT22;3415;51.148;7.014;2023-01-25T07:57:15;0.60;14.00
6756;DHT22;3415;51.148;7.014;2023-01-25T07:59:42;0.70;17.10
6756;DHT22;3415;51.148;7.014;2023-01-25T08:02:09;0.70;21.20
6756;DHT22;3415;51.148;7.014;2023-01-25T08:04:37;0.70;22.70
6756;DHT22;3415;51.148;7.014;2023-01-25T08:07:04;0.70;15.90
6756;DHT22;3415;51.148;7.014;2023-01-25T08:09:32;0.70;17.90
6756;DHT22;3415;51.148;7.014;2023-01-25T08:14:26;0.60;12.90
6756;DHT22;3415;51.148;7.014;2023-01-25T08:16:53;0.80;26.30
6756;DHT22;3415;51.148;7.014;2023-01-25T08:19:20;0.80;1.00
6756;DHT22;3415;51.148;7.014;2023-01-25T08:21:49;0.80;1.00
6756;DHT22;3415;51.148;7.014;2023-01-25T08:24:16;0.90;1.00
6756;DHT22;3415;51.148;7.014;2023-01-25T08:26:44;0.80;1.00
6756;DHT22;3415;51.148;7.014;2023-01-25T08:29:11;0.80;1.00
6756;DHT22;3415;51.148;7.014;2023-01-25T08:31:40;0.80;1.00
6756;DHT22;3415;51.148;7.014;2023-01-25T08:34:08;0.80;1.00
6756;DHT22;3415;51.148;7.014;2023-01-25T08:36:36;0.70;1.00
6756;DHT22;3415;51.148;7.014;2023-01-25T08:39:04;0.80;1.00
6756;DHT22;3415;51.148;7.014;2023-01-25T08:41:32;0.70;1.00
6756;DHT22;3415;51.148;7.014;2023-01-25T08:44:01;0.80;1.00
6756;DHT22;3415;51.148;7.014;2023-01-25T08:46:29;0.80;1.00
6756;DHT22;3415;51.148;7.014;2023-01-25T08:48:58;0.80;1.00
6756;DHT22;3415;51.148;7.014;2023-01-25T08:51:25;0.80;1.00
6756;DHT22;3415;51.148;7.014;2023-01-25T08:53:53;0.80;1.00
6756;DHT22;3415;51.148;7.014;2023-01-25T08:56:20;0.80;1.00
6756;DHT22;3415;51.148;7.014;2023-01-25T08:58:48;0.80;1.00
6756;DHT22;3415;51.148;7.014;2023-01-25T09:01:17;0.80;1.00
6756;DHT22;3415;51.148;7.014;2023-01-25T09:03:46;0.80;1.00
6756;DHT22;3415;51.148;7.014;2023-01-25T09:06:13;0.70;1.00
6756;DHT22;3415;51.148;7.014;2023-01-25T09:08:41;0.80;1.00
6756;DHT22;3415;51.148;7.014;2023-01-25T09:11:09;0.90;1.00
6756;DHT22;3415;51.148;7.014;2023-01-25T09:13:36;0.70;1.00
6756;DHT22;3415;51.148;7.014;2023-01-25T09:16:05;0.70;1.00
6756;DHT22;3415;51.148;7.014;2023-01-25T09:18:35;0.70;1.00
6756;DHT22;3415;51.148;7.014;2023-01-25T09:21:05;0.70;1.00
6756;DHT22;3415;51.148;7.014;2023-01-25T09:23:31;0.60;1.00
6756;DHT22;3415;51.148;7.014;2023-01-25T09:25:59;0.70;1.00
6756;DHT22;3415;51.148;7.014;2023-01-25T09:28:27;0.60;3.90
6756;DHT22;3415;51.148;7.014;2023-01-25T09:30:55;0.60;6.60
6756;DHT22;3415;51.148;7.014;2023-01-25T09:33:24;0.60;5.80
6756;DHT22;3415;51.148;7.014;2023-01-25T09:35:52;0.60;8.20
6756;DHT22;3415;51.148;7.014;2023-01-25T09:38:19;0.60;9.00
6756;DHT22;3415;51.148;7.014;2023-01-25T09:41:06;0.60;12.80
6756;DHT22;3415;51.148;7.014;2023-01-25T09:43:57;0.60;26.30
6756;DHT22;3415;51.148;7.014;2023-01-25T09:46:33;0.50;32.80
6756;DHT22;3415;51.148;7.014;2023-01-25T09:49:06;0.50;35.70
6756;DHT22;3415;51.148;7.014;2023-01-25T09:51:52;0.50;35.60
6756;DHT22;3415;51.148;7.014;2023-01-25T09:54:23;0.50;35.60
6756;DHT22;3415;51.148;7.014;2023-01-25T09:56:53;0.50;90.60
6756;DHT22;3415;51.148;7.014;2023-01-25T09:59:23;0.60;98.00
6756;DHT22;3415;51.148;7.014;2023-01-25T10:01:57;0.70;99.90
6756;DHT22;3415;51.148;7.014;2023-01-25T10:04:28;0.70;99.90
6756;DHT22;3415;51.148;7.014;2023-01-25T10:07:02;0.60;99.90
6756;DHT22;3415;51.148;7.014;2023-01-25T10:09:41;0.70;99.90
6756;DHT22;3415;51.148;7.014;2023-01-25T10:12:17;0.80;99.90
6756;DHT22;3415;51.148;7.014;2023-01-25T10:14:44;0.80;99.90
6756;DHT22;3415;51.148;7.014;2023-01-25T10:17:14;0.90;99.90
6756;DHT22;3415;51.148;7.014;2023-01-25T10:19:54;0.90;99.90
6756;DHT22;3415;51.148;7.014;2023-01-25T10:22:28;0.90;97.80
6756;DHT22;3415;51.148;7.014;2023-01-25T10:27:46;0.80;33.60
6756;DHT22;3415;51.148;7.014;2023-01-25T10:30:24;0.80;33.10
6756;DHT22;3415;51.148;7.014;2023-01-25T10:32:53;0.70;22.60
6756;DHT22;3415;51.148;7.014;2023-01-25T10:35:23;0.70;24.80
6756;DHT22;3415;51.148;7.014;2023-01-25T10:37:53;0.80;35.50
6756;DHT22;3415;51.148;7.014;2023-01-25T10:40:22;0.80;35.20
6756;DHT22;3415;51.148;7.014;2023-01-25T10:42:53;0.80;35.80
6756;DHT22;3415;51.148;7.014;2023-01-25T10:45:20;0.90;35.60
6756;DHT22;3415;51.148;7.014;2023-01-25T10:47:49;0.70;24.80
6756;DHT22;3415;51.148;7.014;2023-01-25T10:50:43;0.70;22.40
6756;DHT22;3415;51.148;7.014;2023-01-25T10:53:29;0.70;24.30
6756;DHT22;3415;51.148;7.014;2023-01-25T10:56:13;0.70;29.00
6756;DHT22;3415;51.148;7.014;2023-01-25T10:58:45;0.80;33.10
6756;DHT22;3415;51.148;7.014;2023-01-25T11:01:22;0.80;39.60
6756;DHT22;3415;51.148;7.014;2023-01-25T11:03:50;0.90;36.40
6756;DHT22;3415;51.148;7.014;2023-01-25T11:06:28;1.00;60.70
6756;DHT22;3415;51.148;7.014;2023-01-25T11:08:57;1.00;49.80
6756;DHT22;3415;51.148;7.014;2023-01-25T11:11:25;1.00;36.30
6756;DHT22;3415;51.148;7.014;2023-01-25T11:13:55;1.00;36.00
6756;DHT22;3415;51.148;7.014;2023-01-25T11:16:29;0.90;36.30
6756;DHT22;3415;51.148;7.014;2023-01-25T11:18:58;1.00;33.30
6756;DHT22;3415;51.148;7.014;2023-01-25T11:21:26;1.20;36.30
6756;DHT22;3415;51.148;7.014;2023-01-25T11:24:00;1.00;22.00
6756;DHT22;3415;51.148;7.014;2023-01-25T11:26:27;1.10;25.10
6756;DHT22;3415;51.148;7.014;2023-01-25T11:29:09;1.10;26.20
6756;DHT22;3415;51.148;7.014;2023-01-25T11:31:37;1.10;10.10
6756;DHT22;3415;51.148;7.014;2023-01-25T11:34:09;1.10;1.00
6756;DHT22;3415;51.148;7.014;2023-01-25T11:36:47;1.00;1.00
6756;DHT22;3415;51.148;7.014;2023-01-25T11:39:26;1.00;1.00
6756;DHT22;3415;51.148;7.014;2023-01-25T11:42:05;0.90;1.00
6756;DHT22;3415;51.148;7.014;2023-01-25T11:44:52;0.90;1.00
6756;DHT22;3415;51.148;7.014;2023-01-25T11:47:33;0.90;1.00
6756;DHT22;3415;51.148;7.014;2023-01-25T11:50:12;0.90;1.00
6756;DHT22;3415;51.148;7.014;2023-01-25T11:52:55;1.10;5.50
6756;DHT22;3415;51.148;7.014;2023-01-25T11:55:30;1.10;5.10
6756;DHT22;3415;51.148;7.014;2023-01-25T11:58:18;1.00;1.00
6756;DHT22;3415;51.148;7.014;2023-01-25T12:00:55;1.00;1.00
6756;DHT22;3415;51.148;7.014;2023-01-25T12:03:47;1.00;1.00
6756;DHT22;3415;51.148;7.014;2023-01-25T12:06:21;0.90;1.00
6756;DHT22;3415;51.148;7.014;2023-01-25T12:09:06;0.90;1.00
6756;DHT22;3415;51.148;7.014;2023-01-25T12:11:46;1.00;1.00
6756;DHT22;3415;51.148;7.014;2023-01-25T12:14:28;0.90;1.00
6756;DHT22;3415;51.148;7.014;2023-01-25T12:17:05;0.80;1.00
6756;DHT22;3415;51.148;7.014;2023-01-25T12:19:46;0.80;1.00
6756;DHT22;3415;51.148;7.014;2023-01-25T12:22:36;0.90;1.00
6756;DHT22;3415;51.148;7.014;2023-01-25T12:25:18;1.00;21.30
6756;DHT22;3415;51.148;7.014;2023-01-25T12:27:57;1.00;22.80
6756;DHT22;3415;51.148;7.014;2023-01-25T12:30:43;1.00;8.30
6756;DHT22;3415;51.148;7.014;2023-01-25T12:33:14;0.90;1.00
6756;DHT22;3415;51.148;7.014;2023-01-25T12:35:47;0.90;1.00
6756;DHT22;3415;51.148;7.014;2023-01-25T12:38:19;0.90;2.20
6756;DHT22;3415;51.148;7.014;2023-01-25T12:40:51;0.80;3.80
6756;DHT22;3415;51.148;7.014;2023-01-25T12:43:26;0.80;10.30
6756;DHT22;3415;51.148;7.014;2023-01-25T12:45:54;0.80;23.30
6756;DHT22;3415;51.148;7.014;2023-01-25T12:48:26;0.80;35.80
6756;DHT22;3415;51.148;7.014;2023-01-25T12:50:55;0.70;35.70
6756;DHT22;3415;51.148;7.014;2023-01-25T12:53:24;0.80;80.10
6756;DHT22;3415;51.148;7.014;2023-01-25T12:55:52;0.80;83.10
6756;DHT22;3415;51.148;7.014;2023-01-25T12:58:27;0.80;99.90
6756;DHT22;3415;51.148;7.014;2023-01-25T13:01:01;0.80;99.90
6756;DHT22;3415;51.148;7.014;2023-01-25T13:03:33;0.80;99.90
6756;DHT22;3415;51.148;7.014;2023-01-25T13:06:10;0.90;99.90
6756;DHT22;3415;51.148;7.014;2023-01-25T13:08:49;0.90;99.90
6756;DHT22;3415;51.148;7.014;2023-01-25T13:11:21;0.90;99.90
6756;DHT22;3415;51.148;7.014;2023-01-25T13:13:50;0.80;99.90
6756;DHT22;3415;51.148;7.014;2023-01-25T13:16:37;0.80;99.90
6756;DHT22;3415;51.148;7.014;2023-01-25T13:19:17;0.90;99.90
6756;DHT22;3415;51.148;7.014;2023-01-25T13:21:46;0.90;99.90
6756;DHT22;3415;51.148;7.014;2023-01-25T13:24:19;0.80;99.90
6756;DHT22;3415;51.148;7.014;2023-01-25T13:26:57;0.80;97.80
6756;DHT22;3415;51.148;7.014;2023-01-25T13:29:59;0.90;99.90
6756;DHT22;3415;51.148;7.014;2023-01-25T13:32:56;0.90;99.30
6756;DHT22;3415;51.148;7.014;2023-01-25T13:35:35;0.90;99.90
6756;DHT22;3415;51.148;7.014;2023-01-25T13:38:18;0.90;99.10
6756;DHT22;3415;51.148;7.014;2023-01-25T13:41:10;0.90;99.10
6756;DHT22;3415;51.148;7.014;2023-01-25T13:43:44;0.90;99.90
6756;DHT22;3415;51.148;7.014;2023-01-25T13:46:16;0.90;99.20
6756;DHT22;3415;51.148;7.014;2023-01-25T13:48:47;0.80;94.00
6756;DHT22;3415;51.148;7.014;2023-01-25T13:51:17;0.80;84.50
6756;DHT22;3415;51.148;7.014;2023-01-25T13:53:55;0.80;86.80
6756;DHT22;3415;51.148;7.014;2023-01-25T13:56:26;0.80;88.90
6756;DHT22;3415;51.148;7.014;2023-01-25T14:01:21;0.90;89.70
6756;DHT22;3415;51.148;7.014;2023-01-25T14:03:50;0.80;90.50
6756;DHT22;3415;51.148;7.014;2023-01-25T14:06:19;0.80;88.30
6756;DHT22;3415;51.148;7.014;2023-01-25T14:08:48;0.80;90.20
6756;DHT22;3415;51.148;7.014;2023-01-25T14:11:19;1.00;96.50
6756;DHT22;3415;51.148;7.014;2023-01-25T14:13:58;1.00;90.30
6756;DHT22;3415;51.148;7.014;2023-01-25T14:16:26;1.00;90.70
6756;DHT22;3415;51.148;7.014;2023-01-25T14:21:22;0.90;1.00
6756;DHT22;3415;51.148;7.014;2023-01-25T14:23:49;0.90;1.00
6756;DHT22;3415;51.148;7.014;2023-01-25T14:26:19;0.90;1.00
6756;DHT22;3415;51.148;7.014;2023-01-25T14:28:49;0.90;1.00
6756;DHT22;3415;51.148;7.014;2023-01-25T14:31:20;0.90;1.00
6756;DHT22;3415;51.148;7.014;2023-01-25T14:33:49;0.90;1.00
6756;DHT22;3415;51.148;7.014;2023-01-25T14:36:23;1.00;3.30
6756;DHT22;3415;51.148;7.014;2023-01-25T14:41:19;1.00;1.00
6756;DHT22;3415;51.148;7.014;2023-01-25T14:43:48;0.90;1.00
6756;DHT22;3415;51.148;7.014;2023-01-25T14:46:21;0.90;1.00
6756;DHT22;3415;51.148;7.014;2023-01-25T14:48:50;0.90;1.00
6756;DHT22;3415;51.148;7.014;2023-01-25T14:51:24;0.80;1.00
6756;DHT22;3415;51.148;7.014;2023-01-25T14:53:57;0.80;2.80
6756;DHT22;3415;51.148;7.014;2023-01-25T14:56:31;0.80;11.70
6756;DHT22;3415;51.148;7.014;2023-01-25T14:58:59;0.90;20.80
6756;DHT22;3415;51.148;7.014;2023-01-25T15:01:30;0.90;20.10
6756;DHT22;3415;51.148;7.014;2023-01-25T15:03:59;0.80;19.50
6756;DHT22;3415;51.148;7.014;2023-01-25T15:06:26;0.90;22.50
6756;DHT22;3415;51.148;7.014;2023-01-25T15:11:27;0.90;24.80
6756;DHT22;3415;51.148;7.014;2023-01-25T15:14:20;0.90;23.50
6756;DHT22;3415;51.148;7.014;2023-01-25T15:16:47;1.00;23.30
6756;DHT22;3415;51.148;7.014;2023-01-25T15:19:23;0.90;17.90
6756;DHT22;3415;51.148;7.014;2023-01-25T15:21:52;0.90;9.50
6756;DHT22;3415;51.148;7.014;2023-01-25T15:26:49;0.80;3.20
6756;DHT22;3415;51.148;7.014;2023-01-25T15:29:18;0.80;5.50
6756;DHT22;3415;51.148;7.014;2023-01-25T15:31:47;0.80;3.70
6756;DHT22;3415;51.148;7.014;2023-01-25T15:34:15;0.90;12.50
6756;DHT22;3415;51.148;7.014;2023-01-25T15:36:44;0.80;1.00
6756;DHT22;3415;51.148;7.014;2023-01-25T15:39:13;0.80;1.00
6756;DHT22;3415;51.148;7.014;2023-01-25T15:41:40;0.80;1.00
6756;DHT22;3415;51.148;7.014;2023-01-25T15:44:08;0.70;1.00
6756;DHT22;3415;51.148;7.014;2023-01-25T15:46:36;0.70;1.00
6756;DHT22;3415;51.148;7.014;2023-01-25T15:49:03;0.80;1.00
6756;DHT22;3415;51.148;7.014;2023-01-25T15:51:31;0.80;1.00
6756;DHT22;3415;51.148;7.014;2023-01-25T15:53:59;0.70;1.00
6756;DHT22;3415;51.148;7.014;2023-01-25T15:56:28;0.80;1.00
6756;DHT22;3415;51.148;7.014;2023-01-25T15:58:58;0.80;1.00
6756;DHT22;3415;51.148;7.014;2023-01-25T16:01:26;0.90;1.00
6756;DHT22;3415;51.148;7.014;2023-01-25T16:03:54;0.80;1.00
6756;DHT22;3415;51.148;7.014;2023-01-25T16:06:34;0.90;1.00
6756;DHT22;3415;51.148;7.014;2023-01-25T16:09:12;0.90;1.00
6756;DHT22;3415;51.148;7.014;2023-01-25T16:11:39;0.90;1.00
6756;DHT22;3415;51.148;7.014;2023-01-25T16:14:06;0.90;1.00
6756;DHT22;3415;51.148;7.014;2023-01-25T16:16:33;0.90;1.00
6756;DHT22;3415;51.148;7.014;2023-01-25T16:19:01;1.00;1.00
6756;DHT22;3415;51.148;7.014;2023-01-25T16:21:28;1.00;1.00
6756;DHT22;3415;51.148;7.014;2023-01-25T16:23:55;1.00;1.00
6756;DHT22;3415;51.148;7.014;2023-01-25T16:26:25;1.00;1.00
6756;DHT22;3415;51.148;7.014;2023-01-25T16:28:53;0.90;1.00
6756;DHT22;3415;51.148;7.014;2023-01-25T16:31:20;0.90;1.00
6756;DHT22;3415;51.148;7.014;2023-01-25T16:33:46;0.90;1.00
6756;DHT22;3415;51.148;7.014;2023-01-25T16:36:15;0.80;1.00
6756;DHT22;3415;51.148;7.014;2023-01-25T16:38:42;0.70;1.00
6756;DHT22;3415;51.148;7.014;2023-01-25T16:41:09;0.70;1.00
6756;DHT22;3415;51.148;7.014;2023-01-25T16:43:39;0.70;1.00
6756;DHT22;3415;51.148;7.014;2023-01-25T16:46:13;0.80;1.00
6756;DHT22;3415;51.148;7.014;2023-01-25T16:48:41;0.80;1.00
6756;DHT22;3415;51.148;7.014;2023-01-25T16:51:17;0.80;1.00
6756;DHT22;3415;51.148;7.014;2023-01-25T16:53:45;0.90;1.00
6756;DHT22;3415;51.148;7.014;2023-01-25T16:56:18;0.80;1.00
6756;DHT22;3415;51.148;7.014;2023-01-25T16:58:47;0.80;1.00
6756;DHT22;3415;51.148;7.014;2023-01-25T17:01:15;0.60;1.00
6756;DHT22;3415;51.148;7.014;2023-01-25T17:03:43;0.60;1.00
6756;DHT22;3415;51.148;7.014;2023-01-25T17:06:16;0.60;1.00
6756;DHT22;3415;51.148;7.014;2023-01-25T17:08:44;0.60;1.00
6756;DHT22;3415;51.148;7.014;2023-01-25T17:11:12;0.70;1.00
6756;DHT22;3415;51.148;7.014;2023-01-25T17:13:40;0.70;1.90
6756;DHT22;3415;51.148;7.014;2023-01-25T17:16:08;0.80;4.80
6756;DHT22;3415;51.148;7.014;2023-01-25T17:18:35;0.80;3.60
6756;DHT22;3415;51.148;7.014;2023-01-25T17:21:03;0.90;6.80
6756;DHT22;3415;51.148;7.014;2023-01-25T17:23:32;0.90;8.30
6756;DHT22;3415;51.148;7.014;2023-01-25T17:26:02;0.90;4.00
6756;DHT22;3415;51.148;7.014;2023-01-25T17:28:30;1.00;3.60
6756;DHT22;3415;51.148;7.014;2023-01-25T17:33:26;0.90;1.00
6756;DHT22;3415;51.148;7.014;2023-01-25T17:35:52;0.80;1.00